sensor_id;sensor_type;location;lat;lon;timestamp;P1;P2;P0
69238;PMS5003;56349;51.816;-0.026;2023-02-17T00:02:10;2;1;
69238;PMS5003;56349;51.816;-0.026;2023-02-17T00:04:35;4;2;
69238;PMS5003;56349;51.816;-0.026;2023-02-17T00:07:01;2;2;
69238;PMS5003;56349;51.816;-0.026;2023-02-17T00:09:27;2;2;
69238;PMS5003;56349;51.816;-0.026;2023-02-17T00:11:53;3;2;
69238;PMS5003;56349;51.816;-0.026;2023-02-17T00:14:19;3;2;
69238;PMS5003;56349;51.816;-0.026;2023-02-17T00:16:45;3;2;
69238;PMS5003;56349;51.816;-0.026;2023-02-17T00:19:11;4;2;
69238;PMS5003;56349;51.816;-0.026;2023-02-17T00:21:37;3;3;
69238;PMS5003;56349;51.816;-0.026;2023-02-17T00:24:03;2;2;
69238;PMS5003;56349;51.816;-0.026;2023-02-17T00:26:29;1;1;
69238;PMS5003;56349;51.816;-0.026;2023-02-17T00:28:55;2;2;
69238;PMS5003;56349;51.816;-0.026;2023-02-17T00:31:21;2;2;
69238;PMS5003;56349;51.816;-0.026;2023-02-17T00:33:45;3;2;
69238;PMS5003;56349;51.816;-0.026;2023-02-17T00:36:11;1;1;
69238;PMS5003;56349;51.816;-0.026;2023-02-17T00:38:36;2;2;
69238;PMS5003;56349;51.816;-0.026;2023-02-17T00:41:01;2;2;
69238;PMS5003;56349;51.816;-0.026;2023-02-17T00:43:26;3;3;
69238;PMS5003;56349;51.816;-0.026;2023-02-17T00:45:52;2;2;
69238;PMS5003;56349;51.816;-0.026;2023-02-17T00:48:17;2;2;
69238;PMS5003;56349;51.816;-0.026;2023-02-17T00:50:44;2;2;
69238;PMS5003;56349;51.816;-0.026;2023-02-17T00:53:09;1;1;
69238;PMS5003;56349;51.816;-0.026;2023-02-17T00:55:35;2;2;
69238;PMS5003;56349;51.816;-0.026;2023-02-17T00:58:01;2;2;
69238;PMS5003;56349;51.816;-0.026;2023-02-17T01:00:33;4;3;
69238;PMS5003;56349;51.816;-0.026;2023-02-17T01:02:53;3;3;
69238;PMS5003;56349;51.816;-0.026;2023-02-17T01:05:19;3;3;
69238;PMS5003;56349;51.816;-0.026;2023-02-17T01:07:45;2;2;
69238;PMS5003;56349;51.816;-0.026;2023-02-17T01:10:11;2;2;
69238;PMS5003;56349;51.816;-0.026;2023-02-17T01:12:36;4;3;
69238;PMS5003;56349;51.816;-0.026;2023-02-17T01:15:01;4;2;
69238;PMS5003;56349;51.816;-0.026;2023-02-17T01:17:27;2;2;
69238;PMS5003;56349;51.816;-0.026;2023-02-17T01:19:53;4;4;
69238;PMS5003;56349;51.816;-0.026;2023-02-17T01:22:19;3;3;
69238;PMS5003;56349;51.816;-0.026;2023-02-17T01:24:46;2;2;
69238;PMS5003;56349;51.816;-0.026;2023-02-17T01:27:12;5;4;
69238;PMS5003;56349;51.816;-0.026;2023-02-17T01:29:38;2;2;
69238;PMS5003;56349;51.816;-0.026;2023-02-17T01:32:04;2;1;
69238;PMS5003;56349;51.816;-0.026;2023-02-17T01:34:29;2;2;
69238;PMS5003;56349;51.816;-0.026;2023-02-17T01:36:55;2;2;
69238;PMS5003;56349;51.816;-0.026;2023-02-17T01:39:21;3;3;
69238;PMS5003;56349;51.816;-0.026;2023-02-17T01:41:47;6;5;
69238;PMS5003;56349;51.816;-0.026;2023-02-17T01:44:14;23;23;
69238;PMS5003;56349;51.816;-0.026;2023-02-17T01:46:39;24;24;
69238;PMS5003;56349;51.816;-0.026;2023-02-17T01:49:07;17;17;
69238;PMS5003;56349;51.816;-0.026;2023-02-17T01:51:30;25;23;
69238;PMS5003;56349;51.816;-0.026;2023-02-17T01:53:56;24;23;
69238;PMS5003;56349;51.816;-0.026;2023-02-17T01:56:21;25;25;
69238;PMS5003;56349;51.816;-0.026;2023-02-17T01:58:48;32;32;
69238;PMS5003;56349;51.816;-0.026;2023-02-17T02:01:11;31;31;
69238;PMS5003;56349;51.816;-0.026;2023-02-17T02:03:37;27;27;
69238;PMS5003;56349;51.816;-0.026;2023-02-17T02:06:03;29;29;
69238;PMS5003;56349;51.816;-0.026;2023-02-17T02:08:28;29;28;
69238;PMS5003;56349;51.816;-0.026;2023-02-17T02:10:52;31;31;
69238;PMS5003;56349;51.816;-0.026;2023-02-17T02:13:18;25;25;
69238;PMS5003;56349;51.816;-0.026;2023-02-17T02:15:46;26;26;
69238;PMS5003;56349;51.816;-0.026;2023-02-17T02:18:22;30;28;
69238;PMS5003;56349;51.816;-0.026;2023-02-17T02:20:45;30;30;
69238;PMS5003;56349;51.816;-0.026;2023-02-17T02:23:08;28;27;
69238;PMS5003;56349;51.816;-0.026;2023-02-17T02:27:53;28;28;
69238;PMS5003;56349;51.816;-0.026;2023-02-17T02:30:27;27;26;
69238;PMS5003;56349;51.816;-0.026;2023-02-17T02:32:46;28;27;
69238;PMS5003;56349;51.816;-0.026;2023-02-17T02:35:10;29;29;
69238;PMS5003;56349;51.816;-0.026;2023-02-17T02:37:35;36;33;
69238;PMS5003;56349;51.816;-0.026;2023-02-17T02:40:00;31;31;
69238;PMS5003;56349;51.816;-0.026;2023-02-17T02:42:25;28;28;
69238;PMS5003;56349;51.816;-0.026;2023-02-17T02:44:51;25;25;
69238;PMS5003;56349;51.816;-0.026;2023-02-17T02:49:42;30;30;
69238;PMS5003;56349;51.816;-0.026;2023-02-17T02:52:09;29;28;
69238;PMS5003;56349;51.816;-0.026;2023-02-17T02:54:36;25;25;
69238;PMS5003;56349;51.816;-0.026;2023-02-17T02:57:05;26;25;
69238;PMS5003;56349;51.816;-0.026;2023-02-17T02:59:29;27;25;
69238;PMS5003;56349;51.816;-0.026;2023-02-17T03:01:54;26;26;
69238;PMS5003;56349;51.816;-0.026;2023-02-17T03:04:18;24;24;
69238;PMS5003;56349;51.816;-0.026;2023-02-17T03:06:44;28;28;
69238;PMS5003;56349;51.816;-0.026;2023-02-17T03:09:09;29;29;
69238;PMS5003;56349;51.816;-0.026;2023-02-17T03:11:33;27;26;
69238;PMS5003;56349;51.816;-0.026;2023-02-17T03:14:00;28;28;
69238;PMS5003;56349;51.816;-0.026;2023-02-17T03:16:26;25;25;
69238;PMS5003;56349;51.816;-0.026;2023-02-17T03:18:52;29;26;
69238;PMS5003;56349;51.816;-0.026;2023-02-17T03:21:18;27;27;
69238;PMS5003;56349;51.816;-0.026;2023-02-17T03:23:44;24;24;
69238;PMS5003;56349;51.816;-0.026;2023-02-17T03:26:10;25;23;
69238;PMS5003;56349;51.816;-0.026;2023-02-17T03:28:36;25;25;
69238;PMS5003;56349;51.816;-0.026;2023-02-17T03:31:02;25;24;
69238;PMS5003;56349;51.816;-0.026;2023-02-17T03:33:27;22;21;
69238;PMS5003;56349;51.816;-0.026;2023-02-17T03:35:53;26;23;
69238;PMS5003;56349;51.816;-0.026;2023-02-17T03:38:19;20;20;
69238;PMS5003;56349;51.816;-0.026;2023-02-17T03:40:45;25;25;
69238;PMS5003;56349;51.816;-0.026;2023-02-17T03:43:11;20;20;
69238;PMS5003;56349;51.816;-0.026;2023-02-17T03:45:37;21;21;
69238;PMS5003;56349;51.816;-0.026;2023-02-17T03:48:03;22;21;
69238;PMS5003;56349;51.816;-0.026;2023-02-17T03:50:28;20;18;
69238;PMS5003;56349;51.816;-0.026;2023-02-17T03:52:53;22;22;
69238;PMS5003;56349;51.816;-0.026;2023-02-17T03:55:19;20;20;
69238;PMS5003;56349;51.816;-0.026;2023-02-17T03:57:45;18;18;
69238;PMS5003;56349;51.816;-0.026;2023-02-17T04:00:12;18;18;
69238;PMS5003;56349;51.816;-0.026;2023-02-17T04:02:37;18;18;
69238;PMS5003;56349;51.816;-0.026;2023-02-17T04:05:03;21;19;
69238;PMS5003;56349;51.816;-0.026;2023-02-17T04:07:28;19;18;
69238;PMS5003;56349;51.816;-0.026;2023-02-17T04:09:54;16;16;
69238;PMS5003;56349;51.816;-0.026;2023-02-17T04:12:20;19;19;
69238;PMS5003;56349;51.816;-0.026;2023-02-17T04:14:46;15;15;
69238;PMS5003;56349;51.816;-0.026;2023-02-17T04:17:12;16;16;
69238;PMS5003;56349;51.816;-0.026;2023-02-17T04:19:39;17;17;
69238;PMS5003;56349;51.816;-0.026;2023-02-17T04:22:04;16;16;
69238;PMS5003;56349;51.816;-0.026;2023-02-17T04:24:30;18;16;
69238;PMS5003;56349;51.816;-0.026;2023-02-17T04:26:56;15;15;
69238;PMS5003;56349;51.816;-0.026;2023-02-17T04:29:22;15;14;
69238;PMS5003;56349;51.816;-0.026;2023-02-17T04:31:48;15;15;
69238;PMS5003;56349;51.816;-0.026;2023-02-17T04:34:14;12;12;
69238;PMS5003;56349;51.816;-0.026;2023-02-17T04:36:40;12;11;
69238;PMS5003;56349;51.816;-0.026;2023-02-17T04:39:06;13;13;
69238;PMS5003;56349;51.816;-0.026;2023-02-17T04:41:32;12;12;
69238;PMS5003;56349;51.816;-0.026;2023-02-17T04:43:58;17;17;
69238;PMS5003;56349;51.816;-0.026;2023-02-17T04:46:23;13;12;
69238;PMS5003;56349;51.816;-0.026;2023-02-17T04:48:49;12;11;
69238;PMS5003;56349;51.816;-0.026;2023-02-17T04:51:15;11;11;
69238;PMS5003;56349;51.816;-0.026;2023-02-17T04:53:41;11;11;
69238;PMS5003;56349;51.816;-0.026;2023-02-17T04:56:07;11;10;
69238;PMS5003;56349;51.816;-0.026;2023-02-17T04:58:33;12;11;
69238;PMS5003;56349;51.816;-0.026;2023-02-17T05:00:59;12;12;
69238;PMS5003;56349;51.816;-0.026;2023-02-17T05:03:25;11;9;
69238;PMS5003;56349;51.816;-0.026;2023-02-17T05:05:51;9;8;
69238;PMS5003;56349;51.816;-0.026;2023-02-17T05:08:17;8;8;
69238;PMS5003;56349;51.816;-0.026;2023-02-17T05:10:43;9;9;
69238;PMS5003;56349;51.816;-0.026;2023-02-17T05:13:09;8;7;
69238;PMS5003;56349;51.816;-0.026;2023-02-17T05:15:35;13;11;
69238;PMS5003;56349;51.816;-0.026;2023-02-17T05:18:01;9;9;
69238;PMS5003;56349;51.816;-0.026;2023-02-17T05:20:26;10;10;
69238;PMS5003;56349;51.816;-0.026;2023-02-17T05:22:51;8;8;
69238;PMS5003;56349;51.816;-0.026;2023-02-17T05:25:17;10;10;
69238;PMS5003;56349;51.816;-0.026;2023-02-17T05:27:43;9;8;
69238;PMS5003;56349;51.816;-0.026;2023-02-17T05:30:10;7;6;
69238;PMS5003;56349;51.816;-0.026;2023-02-17T05:32:35;8;8;
69238;PMS5003;56349;51.816;-0.026;2023-02-17T05:35:01;11;10;
69238;PMS5003;56349;51.816;-0.026;2023-02-17T05:37:27;6;6;
69238;PMS5003;56349;51.816;-0.026;2023-02-17T05:39:53;10;8;
69238;PMS5003;56349;51.816;-0.026;2023-02-17T05:42:19;10;9;
69238;PMS5003;56349;51.816;-0.026;2023-02-17T05:44:45;8;8;
69238;PMS5003;56349;51.816;-0.026;2023-02-17T05:47:11;7;7;
69238;PMS5003;56349;51.816;-0.026;2023-02-17T05:49:37;8;7;
69238;PMS5003;56349;51.816;-0.026;2023-02-17T05:52:03;9;9;
69238;PMS5003;56349;51.816;-0.026;2023-02-17T05:54:29;6;6;
69238;PMS5003;56349;51.816;-0.026;2023-02-17T05:56:54;7;7;
69238;PMS5003;56349;51.816;-0.026;2023-02-17T05:59:20;7;7;
69238;PMS5003;56349;51.816;-0.026;2023-02-17T06:01:46;8;8;
69238;PMS5003;56349;51.816;-0.026;2023-02-17T06:04:12;7;7;
69238;PMS5003;56349;51.816;-0.026;2023-02-17T06:06:38;8;8;
69238;PMS5003;56349;51.816;-0.026;2023-02-17T06:09:04;7;7;
69238;PMS5003;56349;51.816;-0.026;2023-02-17T06:11:30;6;5;
69238;PMS5003;56349;51.816;-0.026;2023-02-17T06:13:56;1;1;
69238;PMS5003;56349;51.816;-0.026;2023-02-17T06:16:22;0;0;
69238;PMS5003;56349;51.816;-0.026;2023-02-17T06:18:47;0;0;
69238;PMS5003;56349;51.816;-0.026;2023-02-17T06:21:13;0;0;
69238;PMS5003;56349;51.816;-0.026;2023-02-17T06:23:40;0;0;
69238;PMS5003;56349;51.816;-0.026;2023-02-17T06:26:06;0;0;
69238;PMS5003;56349;51.816;-0.026;2023-02-17T06:28:32;0;0;
69238;PMS5003;56349;51.816;-0.026;2023-02-17T06:30:58;0;0;
69238;PMS5003;56349;51.816;-0.026;2023-02-17T06:33:24;0;0;
69238;PMS5003;56349;51.816;-0.026;2023-02-17T06:35:50;0;0;
69238;PMS5003;56349;51.816;-0.026;2023-02-17T06:38:15;0;0;
69238;PMS5003;56349;51.816;-0.026;2023-02-17T06:40:41;0;0;
69238;PMS5003;56349;51.816;-0.026;2023-02-17T06:43:06;0;0;
69238;PMS5003;56349;51.816;-0.026;2023-02-17T06:45:32;1;1;
69238;PMS5003;56349;51.816;-0.026;2023-02-17T06:47:58;0;0;
69238;PMS5003;56349;51.816;-0.026;2023-02-17T06:50:24;0;0;
69238;PMS5003;56349;51.816;-0.026;2023-02-17T06:52:51;0;0;
69238;PMS5003;56349;51.816;-0.026;2023-02-17T06:55:17;0;0;
69238;PMS5003;56349;51.816;-0.026;2023-02-17T06:57:43;0;0;
69238;PMS5003;56349;51.816;-0.026;2023-02-17T07:00:09;0;0;
69238;PMS5003;56349;51.816;-0.026;2023-02-17T07:02:36;0;0;
69238;PMS5003;56349;51.816;-0.026;2023-02-17T07:05:01;0;0;
69238;PMS5003;56349;51.816;-0.026;2023-02-17T07:07:27;0;0;
69238;PMS5003;56349;51.816;-0.026;2023-02-17T07:09:53;0;0;
69238;PMS5003;56349;51.816;-0.026;2023-02-17T07:12:19;0;0;
69238;PMS5003;56349;51.816;-0.026;2023-02-17T07:14:45;0;0;
69238;PMS5003;56349;51.816;-0.026;2023-02-17T07:17:11;0;0;
69238;PMS5003;56349;51.816;-0.026;2023-02-17T07:19:37;0;0;
69238;PMS5003;56349;51.816;-0.026;2023-02-17T07:22:03;0;0;
69238;PMS5003;56349;51.816;-0.026;2023-02-17T07:24:29;0;0;
69238;PMS5003;56349;51.816;-0.026;2023-02-17T07:26:55;0;0;
69238;PMS5003;56349;51.816;-0.026;2023-02-17T07:29:21;0;0;
69238;PMS5003;56349;51.816;-0.026;2023-02-17T07:31:47;0;0;
69238;PMS5003;56349;51.816;-0.026;2023-02-17T07:34:13;0;0;
69238;PMS5003;56349;51.816;-0.026;2023-02-17T07:36:39;0;0;
69238;PMS5003;56349;51.816;-0.026;2023-02-17T07:39:04;0;0;
69238;PMS5003;56349;51.816;-0.026;2023-02-17T07:41:30;0;0;
69238;PMS5003;56349;51.816;-0.026;2023-02-17T07:43:57;0;0;
69238;PMS5003;56349;51.816;-0.026;2023-02-17T07:46:22;1;1;
69238;PMS5003;56349;51.816;-0.026;2023-02-17T07:48:48;0;0;
69238;PMS5003;56349;51.816;-0.026;2023-02-17T07:51:15;0;0;
69238;PMS5003;56349;51.816;-0.026;2023-02-17T07:53:40;0;0;
69238;PMS5003;56349;51.816;-0.026;2023-02-17T07:56:07;0;0;
69238;PMS5003;56349;51.816;-0.026;2023-02-17T07:58:32;1;0;
69238;PMS5003;56349;51.816;-0.026;2023-02-17T08:00:58;0;0;
69238;PMS5003;56349;51.816;-0.026;2023-02-17T08:03:24;0;0;
69238;PMS5003;56349;51.816;-0.026;2023-02-17T08:05:49;0;0;
69238;PMS5003;56349;51.816;-0.026;2023-02-17T08:08:15;0;0;
69238;PMS5003;56349;51.816;-0.026;2023-02-17T08:10:41;0;0;
69238;PMS5003;56349;51.816;-0.026;2023-02-17T08:13:08;0;0;
69238;PMS5003;56349;51.816;-0.026;2023-02-17T08:15:33;0;0;
69238;PMS5003;56349;51.816;-0.026;2023-02-17T08:17:58;0;0;
69238;PMS5003;56349;51.816;-0.026;2023-02-17T08:20:24;0;0;
69238;PMS5003;56349;51.816;-0.026;2023-02-17T08:22:50;0;0;
69238;PMS5003;56349;51.816;-0.026;2023-02-17T08:25:16;1;0;
69238;PMS5003;56349;51.816;-0.026;2023-02-17T08:27:41;0;0;
69238;PMS5003;56349;51.816;-0.026;2023-02-17T08:30:08;0;0;
69238;PMS5003;56349;51.816;-0.026;2023-02-17T08:32:33;0;0;
69238;PMS5003;56349;51.816;-0.026;2023-02-17T08:34:59;0;0;
69238;PMS5003;56349;51.816;-0.026;2023-02-17T08:37:25;0;0;
69238;PMS5003;56349;51.816;-0.026;2023-02-17T08:39:50;0;0;
69238;PMS5003;56349;51.816;-0.026;2023-02-17T08:42:16;0;0;
69238;PMS5003;56349;51.816;-0.026;2023-02-17T08:44:42;0;0;
69238;PMS5003;56349;51.816;-0.026;2023-02-17T08:47:08;0;0;
69238;PMS5003;56349;51.816;-0.026;2023-02-17T08:49:34;0;0;
69238;PMS5003;56349;51.816;-0.026;2023-02-17T08:52:00;2;0;
69238;PMS5003;56349;51.816;-0.026;2023-02-17T08:54:26;0;0;
69238;PMS5003;56349;51.816;-0.026;2023-02-17T08:56:51;0;0;
69238;PMS5003;56349;51.816;-0.026;2023-02-17T08:59:17;0;0;
69238;PMS5003;56349;51.816;-0.026;2023-02-17T09:01:42;0;0;
69238;PMS5003;56349;51.816;-0.026;2023-02-17T09:04:10;0;0;
69238;PMS5003;56349;51.816;-0.026;2023-02-17T09:06:34;0;0;
69238;PMS5003;56349;51.816;-0.026;2023-02-17T09:08:59;0;0;
69238;PMS5003;56349;51.816;-0.026;2023-02-17T09:11:24;0;0;
69238;PMS5003;56349;51.816;-0.026;2023-02-17T09:13:50;0;0;
69238;PMS5003;56349;51.816;-0.026;2023-02-17T09:16:16;0;0;
69238;PMS5003;56349;51.816;-0.026;2023-02-17T09:18:42;0;0;
69238;PMS5003;56349;51.816;-0.026;2023-02-17T09:21:09;0;0;
69238;PMS5003;56349;51.816;-0.026;2023-02-17T09:23:34;0;0;
69238;PMS5003;56349;51.816;-0.026;2023-02-17T09:26:01;0;0;
69238;PMS5003;56349;51.816;-0.026;2023-02-17T09:28:26;0;0;
69238;PMS5003;56349;51.816;-0.026;2023-02-17T09:30:52;0;0;
69238;PMS5003;56349;51.816;-0.026;2023-02-17T09:33:18;0;0;
69238;PMS5003;56349;51.816;-0.026;2023-02-17T09:35:44;0;0;
69238;PMS5003;56349;51.816;-0.026;2023-02-17T09:38:10;0;0;
69238;PMS5003;56349;51.816;-0.026;2023-02-17T09:40:37;0;0;
69238;PMS5003;56349;51.816;-0.026;2023-02-17T09:43:02;0;0;
69238;PMS5003;56349;51.816;-0.026;2023-02-17T09:45:30;0;0;
69238;PMS5003;56349;51.816;-0.026;2023-02-17T09:47:54;1;0;
69238;PMS5003;56349;51.816;-0.026;2023-02-17T09:50:20;0;0;
69238;PMS5003;56349;51.816;-0.026;2023-02-17T09:52:46;0;0;
69238;PMS5003;56349;51.816;-0.026;2023-02-17T09:55:12;0;0;
69238;PMS5003;56349;51.816;-0.026;2023-02-17T09:57:39;0;0;
69238;PMS5003;56349;51.816;-0.026;2023-02-17T10:00:06;0;0;
69238;PMS5003;56349;51.816;-0.026;2023-02-17T10:02:30;0;0;
69238;PMS5003;56349;51.816;-0.026;2023-02-17T10:04:54;0;0;
69238;PMS5003;56349;51.816;-0.026;2023-02-17T10:07:21;0;0;
69238;PMS5003;56349;51.816;-0.026;2023-02-17T10:09:47;0;0;
69238;PMS5003;56349;51.816;-0.026;2023-02-17T10:12:13;0;0;
69238;PMS5003;56349;51.816;-0.026;2023-02-17T10:14:39;1;0;
69238;PMS5003;56349;51.816;-0.026;2023-02-17T10:17:05;0;0;
69238;PMS5003;56349;51.816;-0.026;2023-02-17T10:19:29;0;0;
69238;PMS5003;56349;51.816;-0.026;2023-02-17T10:21:57;1;0;
69238;PMS5003;56349;51.816;-0.026;2023-02-17T10:24:20;0;0;
69238;PMS5003;56349;51.816;-0.026;2023-02-17T10:26:49;0;0;
69238;PMS5003;56349;51.816;-0.026;2023-02-17T10:29:12;0;0;
69238;PMS5003;56349;51.816;-0.026;2023-02-17T10:31:40;0;0;
69238;PMS5003;56349;51.816;-0.026;2023-02-17T10:34:03;0;0;
69238;PMS5003;56349;51.816;-0.026;2023-02-17T10:36:29;0;0;
69238;PMS5003;56349;51.816;-0.026;2023-02-17T10:38:54;0;0;
69238;PMS5003;56349;51.816;-0.026;2023-02-17T10:41:20;0;0;
69238;PMS5003;56349;51.816;-0.026;2023-02-17T10:43:44;1;0;
69238;PMS5003;56349;51.816;-0.026;2023-02-17T10:46:10;0;0;
69238;PMS5003;56349;51.816;-0.026;2023-02-17T10:48:36;1;0;
69238;PMS5003;56349;51.816;-0.026;2023-02-17T10:51:00;0;0;
69238;PMS5003;56349;51.816;-0.026;2023-02-17T10:53:26;0;0;
69238;PMS5003;56349;51.816;-0.026;2023-02-17T10:55:53;0;0;
69238;PMS5003;56349;51.816;-0.026;2023-02-17T10:58:17;0;0;
69238;PMS5003;56349;51.816;-0.026;2023-02-17T11:00:41;0;0;
69238;PMS5003;56349;51.816;-0.026;2023-02-17T11:05:33;0;0;
69238;PMS5003;56349;51.816;-0.026;2023-02-17T11:07:59;1;1;
69238;PMS5003;56349;51.816;-0.026;2023-02-17T11:10:25;0;0;
69238;PMS5003;56349;51.816;-0.026;2023-02-17T11:12:49;0;0;
69238;PMS5003;56349;51.816;-0.026;2023-02-17T11:15:15;0;0;
69238;PMS5003;56349;51.816;-0.026;2023-02-17T11:17:41;0;0;
69238;PMS5003;56349;51.816;-0.026;2023-02-17T11:20:08;0;0;
69238;PMS5003;56349;51.816;-0.026;2023-02-17T11:22:32;0;0;
69238;PMS5003;56349;51.816;-0.026;2023-02-17T11:24:57;2;0;
69238;PMS5003;56349;51.816;-0.026;2023-02-17T11:27:23;1;1;
69238;PMS5003;56349;51.816;-0.026;2023-02-17T11:29:48;1;1;
69238;PMS5003;56349;51.816;-0.026;2023-02-17T11:32:14;1;1;
69238;PMS5003;56349;51.816;-0.026;2023-02-17T11:34:41;0;0;
69238;PMS5003;56349;51.816;-0.026;2023-02-17T11:37:20;0;0;
69238;PMS5003;56349;51.816;-0.026;2023-02-17T11:39:36;1;0;
69238;PMS5003;56349;51.816;-0.026;2023-02-17T11:41:56;1;1;
69238;PMS5003;56349;51.816;-0.026;2023-02-17T11:44:22;2;1;
69238;PMS5003;56349;51.816;-0.026;2023-02-17T11:46:50;0;0;
69238;PMS5003;56349;51.816;-0.026;2023-02-17T11:51:43;1;1;
69238;PMS5003;56349;51.816;-0.026;2023-02-17T11:54:07;1;1;
69238;PMS5003;56349;51.816;-0.026;2023-02-17T11:56:32;0;0;
69238;PMS5003;56349;51.816;-0.026;2023-02-17T11:59:01;0;0;
69238;PMS5003;56349;51.816;-0.026;2023-02-17T12:01:28;1;1;
69238;PMS5003;56349;51.816;-0.026;2023-02-17T12:06:13;1;0;
69238;PMS5003;56349;51.816;-0.026;2023-02-17T12:08:42;1;1;
69238;PMS5003;56349;51.816;-0.026;2023-02-17T12:11:07;1;1;
69238;PMS5003;56349;51.816;-0.026;2023-02-17T12:13:33;3;2;
69238;PMS5003;56349;51.816;-0.026;2023-02-17T12:15:59;0;0;
69238;PMS5003;56349;51.816;-0.026;2023-02-17T12:18:24;2;1;
69238;PMS5003;56349;51.816;-0.026;2023-02-17T12:20:47;1;1;
69238;PMS5003;56349;51.816;-0.026;2023-02-17T12:23:16;1;0;
69238;PMS5003;56349;51.816;-0.026;2023-02-17T12:25:39;0;0;
69238;PMS5003;56349;51.816;-0.026;2023-02-17T12:28:06;1;1;
69238;PMS5003;56349;51.816;-0.026;2023-02-17T12:30:32;1;0;
69238;PMS5003;56349;51.816;-0.026;2023-02-17T12:32:59;0;0;
69238;PMS5003;56349;51.816;-0.026;2023-02-17T12:35:21;0;0;
69238;PMS5003;56349;51.816;-0.026;2023-02-17T12:37:48;0;0;
69238;PMS5003;56349;51.816;-0.026;2023-02-17T12:40:15;1;1;
69238;PMS5003;56349;51.816;-0.026;2023-02-17T12:42:39;0;0;
69238;PMS5003;56349;51.816;-0.026;2023-02-17T12:45:05;0;0;
69238;PMS5003;56349;51.816;-0.026;2023-02-17T12:47:30;0;0;
69238;PMS5003;56349;51.816;-0.026;2023-02-17T12:49:58;0;0;
69238;PMS5003;56349;51.816;-0.026;2023-02-17T12:52:22;1;1;
69238;PMS5003;56349;51.816;-0.026;2023-02-17T12:54:49;0;0;
69238;PMS5003;56349;51.816;-0.026;2023-02-17T12:57:13;0;0;
69238;PMS5003;56349;51.816;-0.026;2023-02-17T12:59:39;0;0;
69238;PMS5003;56349;51.816;-0.026;2023-02-17T13:02:05;0;0;
69238;PMS5003;56349;51.816;-0.026;2023-02-17T13:04:30;0;0;
69238;PMS5003;56349;51.816;-0.026;2023-02-17T13:07:00;0;0;
69238;PMS5003;56349;51.816;-0.026;2023-02-17T13:09:24;0;0;
69238;PMS5003;56349;51.816;-0.026;2023-02-17T13:11:46;1;1;
69238;PMS5003;56349;51.816;-0.026;2023-02-17T13:16:41;0;0;
69238;PMS5003;56349;51.816;-0.026;2023-02-17T13:19:06;1;0;
69238;PMS5003;56349;51.816;-0.026;2023-02-17T13:21:31;1;1;
69238;PMS5003;56349;51.816;-0.026;2023-02-17T13:23:58;0;0;
69238;PMS5003;56349;51.816;-0.026;2023-02-17T13:26:24;0;0;
69238;PMS5003;56349;51.816;-0.026;2023-02-17T13:28:44;0;0;
69238;PMS5003;56349;51.816;-0.026;2023-02-17T13:31:11;1;1;
69238;PMS5003;56349;51.816;-0.026;2023-02-17T13:33:39;1;1;
69238;PMS5003;56349;51.816;-0.026;2023-02-17T13:38:27;0;0;
69238;PMS5003;56349;51.816;-0.026;2023-02-17T13:40:56;1;1;
69238;PMS5003;56349;51.816;-0.026;2023-02-17T13:43:18;0;0;
69238;PMS5003;56349;51.816;-0.026;2023-02-17T13:45:43;1;1;
69238;PMS5003;56349;51.816;-0.026;2023-02-17T13:48:11;0;0;
69238;PMS5003;56349;51.816;-0.026;2023-02-17T13:50:34;0;0;
69238;PMS5003;56349;51.816;-0.026;2023-02-17T13:53:00;0;0;
69238;PMS5003;56349;51.816;-0.026;2023-02-17T13:55:25;0;0;
69238;PMS5003;56349;51.816;-0.026;2023-02-17T13:57:52;0;0;
69238;PMS5003;56349;51.816;-0.026;2023-02-17T14:00:19;0;0;
69238;PMS5003;56349;51.816;-0.026;2023-02-17T14:02:44;0;0;
69238;PMS5003;56349;51.816;-0.026;2023-02-17T14:05:15;0;0;
69238;PMS5003;56349;51.816;-0.026;2023-02-17T14:07:34;0;0;
69238;PMS5003;56349;51.816;-0.026;2023-02-17T14:10:00;0;0;
69238;PMS5003;56349;51.816;-0.026;2023-02-17T14:12:26;0;0;
69238;PMS5003;56349;51.816;-0.026;2023-02-17T14:14:51;0;0;
69238;PMS5003;56349;51.816;-0.026;2023-02-17T14:19:43;0;0;
69238;PMS5003;56349;51.816;-0.026;2023-02-17T14:24:36;0;0;
69238;PMS5003;56349;51.816;-0.026;2023-02-17T14:27:00;0;0;
69238;PMS5003;56349;51.816;-0.026;2023-02-17T14:31:52;0;0;
69238;PMS5003;56349;51.816;-0.026;2023-02-17T14:36:43;0;0;
69238;PMS5003;56349;51.816;-0.026;2023-02-17T14:39:11;0;0;
69238;PMS5003;56349;51.816;-0.026;2023-02-17T14:41:34;0;0;
69238;PMS5003;56349;51.816;-0.026;2023-02-17T14:44:00;0;0;
69238;PMS5003;56349;51.816;-0.026;2023-02-17T14:46:26;0;0;
69238;PMS5003;56349;51.816;-0.026;2023-02-17T14:48:54;0;0;
69238;PMS5003;56349;51.816;-0.026;2023-02-17T14:51:17;0;0;
69238;PMS5003;56349;51.816;-0.026;2023-02-17T14:53:42;0;0;
69238;PMS5003;56349;51.816;-0.026;2023-02-17T14:56:09;0;0;
69238;PMS5003;56349;51.816;-0.026;2023-02-17T14:58:33;1;0;
69238;PMS5003;56349;51.816;-0.026;2023-02-17T15:00:59;1;1;
69238;PMS5003;56349;51.816;-0.026;2023-02-17T15:03:25;1;0;
69238;PMS5003;56349;51.816;-0.026;2023-02-17T15:05:50;1;1;
69238;PMS5003;56349;51.816;-0.026;2023-02-17T15:08:16;0;0;
69238;PMS5003;56349;51.816;-0.026;2023-02-17T15:10:41;0;0;
69238;PMS5003;56349;51.816;-0.026;2023-02-17T15:13:08;1;0;
69238;PMS5003;56349;51.816;-0.026;2023-02-17T15:15:31;0;0;
69238;PMS5003;56349;51.816;-0.026;2023-02-17T15:17:57;0;0;
69238;PMS5003;56349;51.816;-0.026;2023-02-17T15:20:23;1;1;
69238;PMS5003;56349;51.816;-0.026;2023-02-17T15:22:56;1;1;
69238;PMS5003;56349;51.816;-0.026;2023-02-17T15:25:16;1;1;
69238;PMS5003;56349;51.816;-0.026;2023-02-17T15:27:41;1;1;
69238;PMS5003;56349;51.816;-0.026;2023-02-17T15:30:09;3;2;
69238;PMS5003;56349;51.816;-0.026;2023-02-17T15:32:32;1;1;
69238;PMS5003;56349;51.816;-0.026;2023-02-17T15:34:57;1;0;
69238;PMS5003;56349;51.816;-0.026;2023-02-17T15:37:25;0;0;
69238;PMS5003;56349;51.816;-0.026;2023-02-17T15:39:49;1;1;
69238;PMS5003;56349;51.816;-0.026;2023-02-17T15:42:14;0;0;
69238;PMS5003;56349;51.816;-0.026;2023-02-17T15:44:41;1;1;
69238;PMS5003;56349;51.816;-0.026;2023-02-17T15:47:08;0;0;
69238;PMS5003;56349;51.816;-0.026;2023-02-17T15:49:31;0;0;
69238;PMS5003;56349;51.816;-0.026;2023-02-17T15:51:57;0;0;
69238;PMS5003;56349;51.816;-0.026;2023-02-17T15:54:23;1;1;
69238;PMS5003;56349;51.816;-0.026;2023-02-17T15:56:49;1;0;
69238;PMS5003;56349;51.816;-0.026;2023-02-17T15:59:15;0;0;
69238;PMS5003;56349;51.816;-0.026;2023-02-17T16:01:40;0;0;
69238;PMS5003;56349;51.816;-0.026;2023-02-17T16:04:07;2;0;
69238;PMS5003;56349;51.816;-0.026;2023-02-17T16:06:31;0;0;
69238;PMS5003;56349;51.816;-0.026;2023-02-17T16:08:57;1;0;
69238;PMS5003;56349;51.816;-0.026;2023-02-17T16:11:23;1;0;
69238;PMS5003;56349;51.816;-0.026;2023-02-17T16:13:48;0;0;
69238;PMS5003;56349;51.816;-0.026;2023-02-17T16:16:14;1;1;
69238;PMS5003;56349;51.816;-0.026;2023-02-17T16:18:39;0;0;
69238;PMS5003;56349;51.816;-0.026;2023-02-17T16:21:05;2;0;
69238;PMS5003;56349;51.816;-0.026;2023-02-17T16:23:31;0;0;
69238;PMS5003;56349;51.816;-0.026;2023-02-17T16:25:57;0;0;
69238;PMS5003;56349;51.816;-0.026;2023-02-17T16:28:23;0;0;
69238;PMS5003;56349;51.816;-0.026;2023-02-17T16:30:49;4;4;
69238;PMS5003;56349;51.816;-0.026;2023-02-17T16:33:15;0;0;
69238;PMS5003;56349;51.816;-0.026;2023-02-17T16:35:40;0;0;
69238;PMS5003;56349;51.816;-0.026;2023-02-17T16:38:07;2;0;
69238;PMS5003;56349;51.816;-0.026;2023-02-17T16:40:32;0;0;
69238;PMS5003;56349;51.816;-0.026;2023-02-17T16:42:56;2;0;